CheckWX is a tool to help pilots better visualize weather data.  It is not intended as a substitute for an official pre-flight weather briefing.

08:11:54 UTC

KMAN METAR
Nampa Municipal Airport
Nampa, Idaho, USA
Current

17 mins ago

KMAN 220755Z AUTO 31006KT 10SM CLR M03/M04 A3000 RMK A01
Observed
Feb-22 @ 07:55 UTC
Wind
  • 310° at 6 KTS
Visibility
10 SM
Flight Rules
VFR
Cloud Levels
  • Clear skies
Temperature
-3°C / 27°F
Dewpoint
-4°C / 25°F
Humidity
93%
Altimeter
30" Hg
Pressure
1015.92 hPa
Previous

37 mins ago

KMAN 220735Z AUTO 31007KT 10SM CLR M03/M04 A3000 RMK A01
Observed
Feb-22 @ 07:35 UTC
Wind
  • 310° at 7 KTS
Visibility
10 SM
Flight Rules
VFR
Cloud Levels
  • Clear skies
Temperature
-3°C / 27°F
Dewpoint
-4°C / 25°F
Humidity
93%
Altimeter
30" Hg
Pressure
1015.92 hPa
Previous

57 mins ago

KMAN 220715Z AUTO 31009KT 10SM CLR M03/M04 A2999 RMK A01
Observed
Feb-22 @ 07:15 UTC
Wind
  • 310° at 9 KTS
Visibility
10 SM
Flight Rules
VFR
Cloud Levels
  • Clear skies
Temperature
-3°C / 27°F
Dewpoint
-4°C / 25°F
Humidity
93%
Altimeter
29.99" Hg
Pressure
1015.62 hPa